sensor_id;sensor_type;location;lat;lon;timestamp;P1;durP1;ratioP1;P2;durP2;ratioP2
9124;SDS011;4597;48.730;9.114;2023-06-22T00:01:09;7.45;;;6.63;;
9124;SDS011;4597;48.730;9.114;2023-06-22T00:03:35;7.78;;;6.72;;
9124;SDS011;4597;48.730;9.114;2023-06-22T00:06:00;6.25;;;5.82;;
9124;SDS011;4597;48.730;9.114;2023-06-22T00:08:26;11.15;;;6.07;;
9124;SDS011;4597;48.730;9.114;2023-06-22T00:10:51;6.95;;;6.35;;
9124;SDS011;4597;48.730;9.114;2023-06-22T00:13:17;7.10;;;6.30;;
9124;SDS011;4597;48.730;9.114;2023-06-22T00:15:43;6.30;;;5.70;;
9124;SDS011;4597;48.730;9.114;2023-06-22T00:18:09;6.80;;;6.13;;
9124;SDS011;4597;48.730;9.114;2023-06-22T00:20:35;7.07;;;6.45;;
9124;SDS011;4597;48.730;9.114;2023-06-22T00:23:05;6.95;;;6.25;;
9124;SDS011;4597;48.730;9.114;2023-06-22T00:25:34;7.85;;;6.95;;
9124;SDS011;4597;48.730;9.114;2023-06-22T00:28:00;7.55;;;6.47;;
9124;SDS011;4597;48.730;9.114;2023-06-22T00:30:26;7.57;;;6.50;;
9124;SDS011;4597;48.730;9.114;2023-06-22T00:32:52;8.20;;;7.03;;
9124;SDS011;4597;48.730;9.114;2023-06-22T00:35:17;7.18;;;6.40;;
9124;SDS011;4597;48.730;9.114;2023-06-22T00:37:43;8.53;;;7.03;;
9124;SDS011;4597;48.730;9.114;2023-06-22T00:40:09;7.37;;;6.67;;
9124;SDS011;4597;48.730;9.114;2023-06-22T00:42:37;12.38;;;6.95;;
9124;SDS011;4597;48.730;9.114;2023-06-22T00:45:04;9.83;;;6.77;;
9124;SDS011;4597;48.730;9.114;2023-06-22T00:47:30;9.27;;;6.33;;
9124;SDS011;4597;48.730;9.114;2023-06-22T00:49:55;9.60;;;6.70;;
9124;SDS011;4597;48.730;9.114;2023-06-22T00:52:21;7.57;;;6.97;;
9124;SDS011;4597;48.730;9.114;2023-06-22T00:54:53;7.67;;;6.93;;
9124;SDS011;4597;48.730;9.114;2023-06-22T00:57:20;7.60;;;6.80;;
9124;SDS011;4597;48.730;9.114;2023-06-22T00:59:47;8.63;;;6.73;;
9124;SDS011;4597;48.730;9.114;2023-06-22T01:02:13;7.20;;;6.60;;
9124;SDS011;4597;48.730;9.114;2023-06-22T01:04:39;7.90;;;6.87;;
9124;SDS011;4597;48.730;9.114;2023-06-22T01:07:13;7.07;;;6.47;;
9124;SDS011;4597;48.730;9.114;2023-06-22T01:10:03;6.83;;;6.33;;
9124;SDS011;4597;48.730;9.114;2023-06-22T01:12:39;7.53;;;6.87;;
9124;SDS011;4597;48.730;9.114;2023-06-22T01:15:18;9.03;;;7.23;;
9124;SDS011;4597;48.730;9.114;2023-06-22T01:17:50;8.90;;;6.60;;
9124;SDS011;4597;48.730;9.114;2023-06-22T01:20:17;8.37;;;6.70;;
9124;SDS011;4597;48.730;9.114;2023-06-22T01:22:57;7.03;;;6.53;;
9124;SDS011;4597;48.730;9.114;2023-06-22T01:25:26;6.50;;;5.90;;
9124;SDS011;4597;48.730;9.114;2023-06-22T01:30:58;6.80;;;6.23;;
9124;SDS011;4597;48.730;9.114;2023-06-22T01:33:34;6.67;;;6.07;;
9124;SDS011;4597;48.730;9.114;2023-06-22T01:36:02;7.10;;;5.63;;
9124;SDS011;4597;48.730;9.114;2023-06-22T01:38:29;9.63;;;7.00;;
9124;SDS011;4597;48.730;9.114;2023-06-22T01:40:56;7.73;;;7.00;;
9124;SDS011;4597;48.730;9.114;2023-06-22T01:43:23;7.33;;;6.63;;
9124;SDS011;4597;48.730;9.114;2023-06-22T01:45:51;7.07;;;6.37;;
9124;SDS011;4597;48.730;9.114;2023-06-22T01:48:17;7.93;;;7.17;;
9124;SDS011;4597;48.730;9.114;2023-06-22T01:50:44;10.13;;;6.50;;
9124;SDS011;4597;48.730;9.114;2023-06-22T01:53:10;6.80;;;6.20;;
9124;SDS011;4597;48.730;9.114;2023-06-22T01:55:35;8.33;;;6.60;;
9124;SDS011;4597;48.730;9.114;2023-06-22T01:58:01;6.47;;;5.87;;
9124;SDS011;4597;48.730;9.114;2023-06-22T02:00:27;8.40;;;6.77;;
9124;SDS011;4597;48.730;9.114;2023-06-22T02:02:57;8.80;;;6.83;;
9124;SDS011;4597;48.730;9.114;2023-06-22T02:05:26;8.67;;;6.53;;
9124;SDS011;4597;48.730;9.114;2023-06-22T02:08:00;7.50;;;6.83;;
9124;SDS011;4597;48.730;9.114;2023-06-22T02:10:43;7.17;;;6.47;;
9124;SDS011;4597;48.730;9.114;2023-06-22T02:13:10;7.47;;;6.73;;
9124;SDS011;4597;48.730;9.114;2023-06-22T02:15:37;9.37;;;7.10;;
9124;SDS011;4597;48.730;9.114;2023-06-22T02:18:03;7.23;;;6.53;;
9124;SDS011;4597;48.730;9.114;2023-06-22T02:20:28;6.73;;;6.07;;
9124;SDS011;4597;48.730;9.114;2023-06-22T02:22:54;7.17;;;6.47;;
9124;SDS011;4597;48.730;9.114;2023-06-22T02:25:19;7.10;;;6.40;;
9124;SDS011;4597;48.730;9.114;2023-06-22T02:27:46;7.97;;;7.17;;
9124;SDS011;4597;48.730;9.114;2023-06-22T02:30:12;7.70;;;7.03;;
9124;SDS011;4597;48.730;9.114;2023-06-22T02:32:39;8.13;;;6.43;;
9124;SDS011;4597;48.730;9.114;2023-06-22T02:35:07;8.80;;;6.93;;
9124;SDS011;4597;48.730;9.114;2023-06-22T02:37:35;8.43;;;6.47;;
9124;SDS011;4597;48.730;9.114;2023-06-22T02:40:03;8.00;;;7.03;;
9124;SDS011;4597;48.730;9.114;2023-06-22T02:42:31;8.13;;;7.33;;
9124;SDS011;4597;48.730;9.114;2023-06-22T02:44:57;7.80;;;7.10;;
9124;SDS011;4597;48.730;9.114;2023-06-22T02:47:22;7.90;;;7.30;;
9124;SDS011;4597;48.730;9.114;2023-06-22T02:49:48;7.90;;;7.10;;
9124;SDS011;4597;48.730;9.114;2023-06-22T02:52:13;7.60;;;6.90;;
9124;SDS011;4597;48.730;9.114;2023-06-22T02:54:39;7.90;;;7.17;;
9124;SDS011;4597;48.730;9.114;2023-06-22T02:57:04;10.23;;;7.10;;
9124;SDS011;4597;48.730;9.114;2023-06-22T02:59:30;7.43;;;6.80;;
9124;SDS011;4597;48.730;9.114;2023-06-22T03:01:55;8.13;;;7.33;;
9124;SDS011;4597;48.730;9.114;2023-06-22T03:04:21;10.20;;;7.00;;
9124;SDS011;4597;48.730;9.114;2023-06-22T03:06:46;7.60;;;6.87;;
9124;SDS011;4597;48.730;9.114;2023-06-22T03:09:15;8.07;;;7.20;;
9124;SDS011;4597;48.730;9.114;2023-06-22T03:11:41;8.10;;;7.40;;
9124;SDS011;4597;48.730;9.114;2023-06-22T03:14:07;7.60;;;7.00;;
9124;SDS011;4597;48.730;9.114;2023-06-22T03:16:32;6.83;;;5.70;;
9124;SDS011;4597;48.730;9.114;2023-06-22T03:18:58;10.67;;;7.07;;
9124;SDS011;4597;48.730;9.114;2023-06-22T03:21:26;13.53;;;7.20;;
9124;SDS011;4597;48.730;9.114;2023-06-22T03:23:53;9.40;;;7.30;;
9124;SDS011;4597;48.730;9.114;2023-06-22T03:26:18;8.33;;;7.20;;
9124;SDS011;4597;48.730;9.114;2023-06-22T03:28:44;8.77;;;7.57;;
9124;SDS011;4597;48.730;9.114;2023-06-22T03:31:10;9.33;;;7.07;;
9124;SDS011;4597;48.730;9.114;2023-06-22T03:33:36;7.87;;;7.17;;
9124;SDS011;4597;48.730;9.114;2023-06-22T03:36:01;9.03;;;7.23;;
9124;SDS011;4597;48.730;9.114;2023-06-22T03:38:27;9.40;;;7.20;;
9124;SDS011;4597;48.730;9.114;2023-06-22T03:40:52;10.67;;;7.37;;
9124;SDS011;4597;48.730;9.114;2023-06-22T03:43:18;10.00;;;7.40;;
9124;SDS011;4597;48.730;9.114;2023-06-22T03:45:43;8.30;;;6.97;;
9124;SDS011;4597;48.730;9.114;2023-06-22T03:48:10;9.90;;;7.83;;
9124;SDS011;4597;48.730;9.114;2023-06-22T03:50:36;9.17;;;7.27;;
9124;SDS011;4597;48.730;9.114;2023-06-22T03:53:02;8.20;;;7.40;;
9124;SDS011;4597;48.730;9.114;2023-06-22T03:55:27;9.17;;;8.07;;
9124;SDS011;4597;48.730;9.114;2023-06-22T03:57:53;8.10;;;7.30;;
9124;SDS011;4597;48.730;9.114;2023-06-22T04:00:21;8.60;;;7.60;;
9124;SDS011;4597;48.730;9.114;2023-06-22T04:02:50;9.37;;;7.30;;
9124;SDS011;4597;48.730;9.114;2023-06-22T04:05:16;8.90;;;7.90;;
9124;SDS011;4597;48.730;9.114;2023-06-22T04:07:43;10.37;;;7.60;;
9124;SDS011;4597;48.730;9.114;2023-06-22T04:10:09;9.00;;;8.10;;
9124;SDS011;4597;48.730;9.114;2023-06-22T04:12:35;9.37;;;8.00;;
9124;SDS011;4597;48.730;9.114;2023-06-22T04:15:00;9.63;;;7.37;;
9124;SDS011;4597;48.730;9.114;2023-06-22T04:17:26;8.03;;;7.33;;
9124;SDS011;4597;48.730;9.114;2023-06-22T04:19:52;12.50;;;8.37;;
9124;SDS011;4597;48.730;9.114;2023-06-22T04:22:17;8.57;;;7.70;;
9124;SDS011;4597;48.730;9.114;2023-06-22T04:24:43;9.03;;;8.17;;
9124;SDS011;4597;48.730;9.114;2023-06-22T04:27:09;9.47;;;8.60;;
9124;SDS011;4597;48.730;9.114;2023-06-22T04:29:34;10.53;;;9.47;;
9124;SDS011;4597;48.730;9.114;2023-06-22T04:32:00;10.33;;;9.13;;
9124;SDS011;4597;48.730;9.114;2023-06-22T04:34:30;11.53;;;9.37;;
9124;SDS011;4597;48.730;9.114;2023-06-22T04:36:56;10.87;;;8.77;;
9124;SDS011;4597;48.730;9.114;2023-06-22T04:39:22;9.60;;;8.40;;
9124;SDS011;4597;48.730;9.114;2023-06-22T04:41:48;10.43;;;9.37;;
9124;SDS011;4597;48.730;9.114;2023-06-22T04:44:16;8.93;;;8.13;;
9124;SDS011;4597;48.730;9.114;2023-06-22T04:46:48;9.27;;;8.47;;
9124;SDS011;4597;48.730;9.114;2023-06-22T04:49:33;9.67;;;8.47;;
9124;SDS011;4597;48.730;9.114;2023-06-22T04:52:01;9.93;;;8.93;;
9124;SDS011;4597;48.730;9.114;2023-06-22T04:54:28;10.17;;;9.17;;
9124;SDS011;4597;48.730;9.114;2023-06-22T04:56:53;9.63;;;8.73;;
9124;SDS011;4597;48.730;9.114;2023-06-22T04:59:22;12.00;;;8.90;;
9124;SDS011;4597;48.730;9.114;2023-06-22T05:01:54;9.97;;;8.53;;
9124;SDS011;4597;48.730;9.114;2023-06-22T05:04:20;9.57;;;8.57;;
9124;SDS011;4597;48.730;9.114;2023-06-22T05:06:47;9.73;;;8.70;;
9124;SDS011;4597;48.730;9.114;2023-06-22T05:09:12;9.93;;;8.77;;
9124;SDS011;4597;48.730;9.114;2023-06-22T05:11:38;12.53;;;8.83;;
9124;SDS011;4597;48.730;9.114;2023-06-22T05:14:03;9.17;;;8.27;;
9124;SDS011;4597;48.730;9.114;2023-06-22T05:16:29;12.33;;;9.27;;
9124;SDS011;4597;48.730;9.114;2023-06-22T05:18:55;10.83;;;9.40;;
9124;SDS011;4597;48.730;9.114;2023-06-22T05:21:24;9.87;;;8.87;;
9124;SDS011;4597;48.730;9.114;2023-06-22T05:23:51;10.50;;;8.50;;
9124;SDS011;4597;48.730;9.114;2023-06-22T05:26:18;9.83;;;8.83;;
9124;SDS011;4597;48.730;9.114;2023-06-22T05:28:44;9.13;;;8.30;;
9124;SDS011;4597;48.730;9.114;2023-06-22T05:31:11;10.27;;;9.03;;
9124;SDS011;4597;48.730;9.114;2023-06-22T05:33:40;11.20;;;9.17;;
9124;SDS011;4597;48.730;9.114;2023-06-22T05:36:09;9.70;;;8.80;;
9124;SDS011;4597;48.730;9.114;2023-06-22T05:38:35;9.53;;;8.53;;
9124;SDS011;4597;48.730;9.114;2023-06-22T05:41:01;9.73;;;8.20;;
9124;SDS011;4597;48.730;9.114;2023-06-22T05:43:27;10.30;;;9.27;;
9124;SDS011;4597;48.730;9.114;2023-06-22T05:45:53;10.47;;;9.47;;
9124;SDS011;4597;48.730;9.114;2023-06-22T05:48:18;12.00;;;9.87;;
9124;SDS011;4597;48.730;9.114;2023-06-22T05:50:44;9.17;;;8.27;;
9124;SDS011;4597;48.730;9.114;2023-06-22T05:53:09;10.03;;;9.03;;
9124;SDS011;4597;48.730;9.114;2023-06-22T05:55:35;10.47;;;9.47;;
9124;SDS011;4597;48.730;9.114;2023-06-22T05:58:01;10.57;;;9.47;;
9124;SDS011;4597;48.730;9.114;2023-06-22T06:00:28;10.73;;;9.67;;
9124;SDS011;4597;48.730;9.114;2023-06-22T06:02:54;10.77;;;9.67;;
9124;SDS011;4597;48.730;9.114;2023-06-22T06:05:20;9.90;;;9.00;;
9124;SDS011;4597;48.730;9.114;2023-06-22T06:07:45;10.53;;;9.47;;
9124;SDS011;4597;48.730;9.114;2023-06-22T06:10:11;10.13;;;9.00;;
9124;SDS011;4597;48.730;9.114;2023-06-22T06:12:37;11.00;;;9.53;;
9124;SDS011;4597;48.730;9.114;2023-06-22T06:15:03;11.87;;;10.10;;
9124;SDS011;4597;48.730;9.114;2023-06-22T06:17:29;9.60;;;8.70;;
9124;SDS011;4597;48.730;9.114;2023-06-22T06:19:55;12.23;;;10.27;;
9124;SDS011;4597;48.730;9.114;2023-06-22T06:22:20;9.80;;;8.93;;
9124;SDS011;4597;48.730;9.114;2023-06-22T06:24:48;9.90;;;8.90;;
9124;SDS011;4597;48.730;9.114;2023-06-22T06:27:13;10.13;;;8.88;;
9124;SDS011;4597;48.730;9.114;2023-06-22T06:29:39;10.30;;;9.17;;
9124;SDS011;4597;48.730;9.114;2023-06-22T06:32:05;10.07;;;8.48;;
9124;SDS011;4597;48.730;9.114;2023-06-22T06:34:31;9.60;;;8.67;;
9124;SDS011;4597;48.730;9.114;2023-06-22T06:36:56;9.55;;;8.75;;
9124;SDS011;4597;48.730;9.114;2023-06-22T06:39:22;11.03;;;9.20;;
9124;SDS011;4597;48.730;9.114;2023-06-22T06:41:47;10.50;;;8.70;;
9124;SDS011;4597;48.730;9.114;2023-06-22T06:44:13;9.77;;;8.88;;
9124;SDS011;4597;48.730;9.114;2023-06-22T06:46:39;11.27;;;9.13;;
9124;SDS011;4597;48.730;9.114;2023-06-22T06:49:04;8.90;;;8.20;;
9124;SDS011;4597;48.730;9.114;2023-06-22T06:51:30;9.50;;;8.60;;
9124;SDS011;4597;48.730;9.114;2023-06-22T06:53:55;9.45;;;8.55;;
9124;SDS011;4597;48.730;9.114;2023-06-22T06:56:21;8.57;;;7.68;;
9124;SDS011;4597;48.730;9.114;2023-06-22T06:58:49;8.57;;;7.75;;
9124;SDS011;4597;48.730;9.114;2023-06-22T07:01:15;8.63;;;7.73;;
9124;SDS011;4597;48.730;9.114;2023-06-22T07:03:40;8.77;;;7.87;;
9124;SDS011;4597;48.730;9.114;2023-06-22T07:06:06;8.45;;;7.60;;
9124;SDS011;4597;48.730;9.114;2023-06-22T07:08:32;8.88;;;7.82;;
9124;SDS011;4597;48.730;9.114;2023-06-22T07:10:58;7.80;;;7.10;;
9124;SDS011;4597;48.730;9.114;2023-06-22T07:13:25;8.27;;;7.22;;
9124;SDS011;4597;48.730;9.114;2023-06-22T07:15:51;7.75;;;7.05;;
9124;SDS011;4597;48.730;9.114;2023-06-22T07:18:16;9.07;;;7.82;;
9124;SDS011;4597;48.730;9.114;2023-06-22T07:20:42;7.35;;;6.65;;
9124;SDS011;4597;48.730;9.114;2023-06-22T07:23:07;8.82;;;7.38;;
9124;SDS011;4597;48.730;9.114;2023-06-22T07:25:33;7.63;;;6.93;;
9124;SDS011;4597;48.730;9.114;2023-06-22T07:27:59;7.55;;;6.95;;
9124;SDS011;4597;48.730;9.114;2023-06-22T07:30:29;6.93;;;6.22;;
9124;SDS011;4597;48.730;9.114;2023-06-22T07:32:56;7.00;;;6.40;;
9124;SDS011;4597;48.730;9.114;2023-06-22T07:35:23;8.52;;;6.68;;
9124;SDS011;4597;48.730;9.114;2023-06-22T07:37:48;7.68;;;7.03;;
9124;SDS011;4597;48.730;9.114;2023-06-22T07:40:14;6.95;;;6.35;;
9124;SDS011;4597;48.730;9.114;2023-06-22T07:42:39;6.45;;;5.85;;
9124;SDS011;4597;48.730;9.114;2023-06-22T07:45:05;7.22;;;6.57;;
9124;SDS011;4597;48.730;9.114;2023-06-22T07:47:34;7.07;;;6.30;;
9124;SDS011;4597;48.730;9.114;2023-06-22T07:50:00;7.22;;;5.80;;
9124;SDS011;4597;48.730;9.114;2023-06-22T07:52:26;6.97;;;6.47;;
9124;SDS011;4597;48.730;9.114;2023-06-22T07:54:52;6.90;;;6.28;;
9124;SDS011;4597;48.730;9.114;2023-06-22T07:57:18;7.30;;;6.60;;
9124;SDS011;4597;48.730;9.114;2023-06-22T07:59:44;6.70;;;6.10;;
9124;SDS011;4597;48.730;9.114;2023-06-22T08:02:10;6.30;;;5.80;;
9124;SDS011;4597;48.730;9.114;2023-06-22T08:04:36;6.93;;;6.22;;
9124;SDS011;4597;48.730;9.114;2023-06-22T08:07:01;6.75;;;6.07;;
9124;SDS011;4597;48.730;9.114;2023-06-22T08:09:28;6.65;;;5.93;;
9124;SDS011;4597;48.730;9.114;2023-06-22T08:11:55;7.35;;;6.70;;
9124;SDS011;4597;48.730;9.114;2023-06-22T08:14:21;6.55;;;5.80;;
9124;SDS011;4597;48.730;9.114;2023-06-22T08:16:51;8.93;;;6.45;;
9124;SDS011;4597;48.730;9.114;2023-06-22T08:19:17;8.38;;;6.80;;
9124;SDS011;4597;48.730;9.114;2023-06-22T08:21:42;8.02;;;6.63;;
9124;SDS011;4597;48.730;9.114;2023-06-22T08:24:08;6.78;;;6.10;;
9124;SDS011;4597;48.730;9.114;2023-06-22T08:26:34;6.20;;;5.60;;
9124;SDS011;4597;48.730;9.114;2023-06-22T08:29:04;6.60;;;5.95;;
9124;SDS011;4597;48.730;9.114;2023-06-22T08:31:30;7.35;;;6.28;;
9124;SDS011;4597;48.730;9.114;2023-06-22T08:33:59;7.13;;;6.38;;
9124;SDS011;4597;48.730;9.114;2023-06-22T08:36:24;8.15;;;6.18;;
9124;SDS011;4597;48.730;9.114;2023-06-22T08:38:50;7.22;;;6.53;;
9124;SDS011;4597;48.730;9.114;2023-06-22T08:41:17;9.32;;;6.38;;
9124;SDS011;4597;48.730;9.114;2023-06-22T08:43:43;10.32;;;6.22;;
9124;SDS011;4597;48.730;9.114;2023-06-22T08:46:12;7.97;;;6.05;;
9124;SDS011;4597;48.730;9.114;2023-06-22T08:48:37;7.75;;;6.32;;
9124;SDS011;4597;48.730;9.114;2023-06-22T08:51:04;6.57;;;5.97;;
9124;SDS011;4597;48.730;9.114;2023-06-22T08:53:29;7.10;;;6.50;;
9124;SDS011;4597;48.730;9.114;2023-06-22T08:55:55;6.90;;;6.30;;
9124;SDS011;4597;48.730;9.114;2023-06-22T08:58:20;9.10;;;6.45;;
9124;SDS011;4597;48.730;9.114;2023-06-22T09:00:46;6.93;;;6.25;;
9124;SDS011;4597;48.730;9.114;2023-06-22T09:03:12;6.38;;;5.78;;
9124;SDS011;4597;48.730;9.114;2023-06-22T09:05:38;6.40;;;5.72;;
9124;SDS011;4597;48.730;9.114;2023-06-22T09:08:04;6.88;;;6.18;;
9124;SDS011;4597;48.730;9.114;2023-06-22T09:10:30;6.80;;;6.07;;
9124;SDS011;4597;48.730;9.114;2023-06-22T09:12:56;7.28;;;5.72;;
9124;SDS011;4597;48.730;9.114;2023-06-22T09:15:22;10.25;;;6.78;;
9124;SDS011;4597;48.730;9.114;2023-06-22T09:17:47;7.38;;;6.25;;
9124;SDS011;4597;48.730;9.114;2023-06-22T09:20:13;7.53;;;6.75;;
9124;SDS011;4597;48.730;9.114;2023-06-22T09:22:39;9.07;;;6.68;;
9124;SDS011;4597;48.730;9.114;2023-06-22T09:25:05;6.55;;;6.00;;
9124;SDS011;4597;48.730;9.114;2023-06-22T09:27:31;7.25;;;6.10;;
9124;SDS011;4597;48.730;9.114;2023-06-22T09:29:56;7.43;;;6.55;;
9124;SDS011;4597;48.730;9.114;2023-06-22T09:32:23;7.72;;;7.03;;
9124;SDS011;4597;48.730;9.114;2023-06-22T09:34:50;7.10;;;6.40;;
9124;SDS011;4597;48.730;9.114;2023-06-22T09:37:16;9.90;;;6.63;;
9124;SDS011;4597;48.730;9.114;2023-06-22T09:39:41;8.40;;;6.78;;
9124;SDS011;4597;48.730;9.114;2023-06-22T09:42:07;7.97;;;7.25;;
9124;SDS011;4597;48.730;9.114;2023-06-22T09:44:32;7.30;;;6.47;;
9124;SDS011;4597;48.730;9.114;2023-06-22T09:46:58;7.40;;;6.70;;
9124;SDS011;4597;48.730;9.114;2023-06-22T09:49:24;7.57;;;6.53;;
9124;SDS011;4597;48.730;9.114;2023-06-22T09:51:49;7.20;;;6.60;;
9124;SDS011;4597;48.730;9.114;2023-06-22T09:54:15;6.80;;;6.20;;
9124;SDS011;4597;48.730;9.114;2023-06-22T09:56:41;9.90;;;6.95;;
9124;SDS011;4597;48.730;9.114;2023-06-22T09:59:07;7.85;;;6.38;;
9124;SDS011;4597;48.730;9.114;2023-06-22T10:01:32;8.00;;;6.30;;
9124;SDS011;4597;48.730;9.114;2023-06-22T10:03:58;6.85;;;6.25;;
9124;SDS011;4597;48.730;9.114;2023-06-22T10:06:23;7.82;;;6.65;;
9124;SDS011;4597;48.730;9.114;2023-06-22T10:08:50;7.85;;;6.43;;
9124;SDS011;4597;48.730;9.114;2023-06-22T10:11:16;8.30;;;7.43;;
9124;SDS011;4597;48.730;9.114;2023-06-22T10:13:41;7.22;;;6.53;;
9124;SDS011;4597;48.730;9.114;2023-06-22T10:16:07;7.78;;;6.43;;
9124;SDS011;4597;48.730;9.114;2023-06-22T10:18:32;7.90;;;6.15;;
9124;SDS011;4597;48.730;9.114;2023-06-22T10:20:58;6.65;;;6.07;;
9124;SDS011;4597;48.730;9.114;2023-06-22T10:23:24;7.07;;;6.40;;
9124;SDS011;4597;48.730;9.114;2023-06-22T10:25:49;7.70;;;5.85;;
9124;SDS011;4597;48.730;9.114;2023-06-22T10:28:15;8.20;;;7.40;;
9124;SDS011;4597;48.730;9.114;2023-06-22T10:30:40;7.50;;;6.38;;
9124;SDS011;4597;48.730;9.114;2023-06-22T10:33:09;7.25;;;6.25;;
9124;SDS011;4597;48.730;9.114;2023-06-22T10:35:35;7.38;;;6.68;;
9124;SDS011;4597;48.730;9.114;2023-06-22T10:38:02;7.93;;;6.55;;
9124;SDS011;4597;48.730;9.114;2023-06-22T10:40:28;7.43;;;6.63;;
9124;SDS011;4597;48.730;9.114;2023-06-22T10:42:54;6.97;;;6.32;;
9124;SDS011;4597;48.730;9.114;2023-06-22T10:45:19;7.00;;;6.35;;
9124;SDS011;4597;48.730;9.114;2023-06-22T10:47:45;7.47;;;6.90;;
9124;SDS011;4597;48.730;9.114;2023-06-22T10:50:10;7.00;;;6.35;;
9124;SDS011;4597;48.730;9.114;2023-06-22T10:52:36;7.82;;;6.68;;
9124;SDS011;4597;48.730;9.114;2023-06-22T10:55:02;7.47;;;6.78;;
9124;SDS011;4597;48.730;9.114;2023-06-22T10:57:28;9.02;;;6.47;;
9124;SDS011;4597;48.730;9.114;2023-06-22T10:59:54;7.95;;;7.03;;
9124;SDS011;4597;48.730;9.114;2023-06-22T11:02:20;7.22;;;6.53;;
9124;SDS011;4597;48.730;9.114;2023-06-22T11:04:45;7.03;;;6.32;;
9124;SDS011;4597;48.730;9.114;2023-06-22T11:07:12;7.97;;;6.72;;
9124;SDS011;4597;48.730;9.114;2023-06-22T11:09:38;7.78;;;6.63;;
9124;SDS011;4597;48.730;9.114;2023-06-22T11:12:04;9.05;;;6.53;;
9124;SDS011;4597;48.730;9.114;2023-06-22T11:14:31;7.43;;;6.88;;
9124;SDS011;4597;48.730;9.114;2023-06-22T11:16:58;7.30;;;6.63;;
9124;SDS011;4597;48.730;9.114;2023-06-22T11:19:24;7.35;;;6.53;;
9124;SDS011;4597;48.730;9.114;2023-06-22T11:21:49;9.10;;;7.50;;
9124;SDS011;4597;48.730;9.114;2023-06-22T11:24:16;6.85;;;6.22;;
9124;SDS011;4597;48.730;9.114;2023-06-22T11:26:42;7.60;;;6.88;;
9124;SDS011;4597;48.730;9.114;2023-06-22T11:29:08;7.38;;;6.68;;
9124;SDS011;4597;48.730;9.114;2023-06-22T11:31:34;7.03;;;6.32;;
9124;SDS011;4597;48.730;9.114;2023-06-22T11:34:00;7.57;;;6.47;;
9124;SDS011;4597;48.730;9.114;2023-06-22T11:36:26;8.20;;;6.82;;
9124;SDS011;4597;48.730;9.114;2023-06-22T11:38:52;7.13;;;6.53;;
9124;SDS011;4597;48.730;9.114;2023-06-22T11:41:17;9.05;;;6.60;;
9124;SDS011;4597;48.730;9.114;2023-06-22T11:43:43;7.82;;;6.30;;
9124;SDS011;4597;48.730;9.114;2023-06-22T11:46:09;9.32;;;6.70;;
9124;SDS011;4597;48.730;9.114;2023-06-22T11:48:35;7.22;;;6.53;;
9124;SDS011;4597;48.730;9.114;2023-06-22T11:51:01;7.28;;;6.43;;
9124;SDS011;4597;48.730;9.114;2023-06-22T11:53:27;7.05;;;6.15;;
9124;SDS011;4597;48.730;9.114;2023-06-22T11:55:53;7.35;;;6.57;;
9124;SDS011;4597;48.730;9.114;2023-06-22T11:58:20;6.32;;;5.78;;
9124;SDS011;4597;48.730;9.114;2023-06-22T12:00:45;8.35;;;6.20;;
9124;SDS011;4597;48.730;9.114;2023-06-22T12:03:11;7.50;;;6.03;;
9124;SDS011;4597;48.730;9.114;2023-06-22T12:05:37;10.15;;;7.03;;
9124;SDS011;4597;48.730;9.114;2023-06-22T12:08:03;7.90;;;6.65;;
9124;SDS011;4597;48.730;9.114;2023-06-22T12:10:29;10.90;;;6.75;;
9124;SDS011;4597;48.730;9.114;2023-06-22T12:12:55;7.00;;;6.30;;
9124;SDS011;4597;48.730;9.114;2023-06-22T12:15:22;6.75;;;6.13;;
9124;SDS011;4597;48.730;9.114;2023-06-22T12:17:48;7.03;;;6.32;;
9124;SDS011;4597;48.730;9.114;2023-06-22T12:20:14;8.55;;;6.60;;
9124;SDS011;4597;48.730;9.114;2023-06-22T12:22:40;8.93;;;6.53;;
9124;SDS011;4597;48.730;9.114;2023-06-22T12:25:06;8.65;;;7.00;;
9124;SDS011;4597;48.730;9.114;2023-06-22T12:27:32;10.38;;;6.55;;
9124;SDS011;4597;48.730;9.114;2023-06-22T12:29:57;10.15;;;6.20;;
9124;SDS011;4597;48.730;9.114;2023-06-22T12:32:23;9.73;;;6.97;;
9124;SDS011;4597;48.730;9.114;2023-06-22T12:34:49;8.57;;;6.68;;
9124;SDS011;4597;48.730;9.114;2023-06-22T12:37:14;6.93;;;6.22;;
9124;SDS011;4597;48.730;9.114;2023-06-22T12:39:40;8.55;;;6.18;;
9124;SDS011;4597;48.730;9.114;2023-06-22T12:42:06;7.03;;;6.22;;
9124;SDS011;4597;48.730;9.114;2023-06-22T12:44:34;7.38;;;6.43;;
9124;SDS011;4597;48.730;9.114;2023-06-22T12:47:00;7.35;;;6.75;;
9124;SDS011;4597;48.730;9.114;2023-06-22T12:49:25;6.93;;;6.13;;
9124;SDS011;4597;48.730;9.114;2023-06-22T12:51:51;8.88;;;6.07;;
9124;SDS011;4597;48.730;9.114;2023-06-22T12:54:16;7.18;;;6.28;;
9124;SDS011;4597;48.730;9.114;2023-06-22T12:56:42;7.07;;;6.40;;
9124;SDS011;4597;48.730;9.114;2023-06-22T12:59:10;6.88;;;6.20;;
9124;SDS011;4597;48.730;9.114;2023-06-22T13:01:35;8.43;;;6.28;;
9124;SDS011;4597;48.730;9.114;2023-06-22T13:04:02;8.45;;;5.97;;
9124;SDS011;4597;48.730;9.114;2023-06-22T13:06:28;8.13;;;6.47;;
9124;SDS011;4597;48.730;9.114;2023-06-22T13:08:53;11.00;;;6.63;;
9124;SDS011;4597;48.730;9.114;2023-06-22T13:11:19;7.00;;;6.40;;
9124;SDS011;4597;48.730;9.114;2023-06-22T13:13:44;9.27;;;7.05;;
9124;SDS011;4597;48.730;9.114;2023-06-22T13:16:10;6.97;;;6.35;;
9124;SDS011;4597;48.730;9.114;2023-06-22T13:18:36;7.68;;;6.43;;
9124;SDS011;4597;48.730;9.114;2023-06-22T13:21:02;8.57;;;6.15;;
9124;SDS011;4597;48.730;9.114;2023-06-22T13:23:28;7.63;;;6.00;;
9124;SDS011;4597;48.730;9.114;2023-06-22T13:25:53;7.28;;;6.32;;
9124;SDS011;4597;48.730;9.114;2023-06-22T13:28:19;7.00;;;6.28;;
9124;SDS011;4597;48.730;9.114;2023-06-22T13:30:45;8.23;;;6.57;;
9124;SDS011;4597;48.730;9.114;2023-06-22T13:33:12;8.13;;;6.45;;
9124;SDS011;4597;48.730;9.114;2023-06-22T13:35:38;6.63;;;6.10;;
9124;SDS011;4597;48.730;9.114;2023-06-22T13:38:04;6.80;;;6.05;;
9124;SDS011;4597;48.730;9.114;2023-06-22T13:40:30;9.60;;;6.68;;
9124;SDS011;4597;48.730;9.114;2023-06-22T13:42:56;8.63;;;6.57;;
9124;SDS011;4597;48.730;9.114;2023-06-22T13:45:21;9.27;;;6.78;;
9124;SDS011;4597;48.730;9.114;2023-06-22T13:47:47;8.48;;;6.38;;
9124;SDS011;4597;48.730;9.114;2023-06-22T13:50:13;9.90;;;7.85;;
9124;SDS011;4597;48.730;9.114;2023-06-22T13:52:39;11.35;;;7.05;;
9124;SDS011;4597;48.730;9.114;2023-06-22T13:55:05;9.90;;;6.72;;
9124;SDS011;4597;48.730;9.114;2023-06-22T13:57:32;12.20;;;7.65;;
9124;SDS011;4597;48.730;9.114;2023-06-22T13:59:58;11.55;;;7.32;;
9124;SDS011;4597;48.730;9.114;2023-06-22T14:02:25;9.32;;;7.28;;
9124;SDS011;4597;48.730;9.114;2023-06-22T14:04:51;10.23;;;7.45;;
9124;SDS011;4597;48.730;9.114;2023-06-22T14:07:17;11.82;;;7.70;;
9124;SDS011;4597;48.730;9.114;2023-06-22T14:09:44;10.68;;;6.63;;
9124;SDS011;4597;48.730;9.114;2023-06-22T14:12:10;11.27;;;8.13;;
9124;SDS011;4597;48.730;9.114;2023-06-22T14:14:36;12.80;;;7.53;;
9124;SDS011;4597;48.730;9.114;2023-06-22T14:17:01;8.88;;;7.80;;
9124;SDS011;4597;48.730;9.114;2023-06-22T14:19:27;11.38;;;7.80;;
9124;SDS011;4597;48.730;9.114;2023-06-22T14:21:53;10.57;;;6.90;;
9124;SDS011;4597;48.730;9.114;2023-06-22T14:24:19;10.13;;;6.90;;
9124;SDS011;4597;48.730;9.114;2023-06-22T14:26:44;10.10;;;7.45;;
9124;SDS011;4597;48.730;9.114;2023-06-22T14:29:09;9.70;;;7.93;;
9124;SDS011;4597;48.730;9.114;2023-06-22T14:31:35;11.13;;;7.57;;
9124;SDS011;4597;48.730;9.114;2023-06-22T14:34:00;9.40;;;7.40;;
9124;SDS011;4597;48.730;9.114;2023-06-22T14:36:27;12.35;;;7.72;;
9124;SDS011;4597;48.730;9.114;2023-06-22T14:38:53;8.52;;;7.60;;
9124;SDS011;4597;48.730;9.114;2023-06-22T14:41:19;9.25;;;7.47;;
9124;SDS011;4597;48.730;9.114;2023-06-22T14:43:45;7.93;;;7.00;;
9124;SDS011;4597;48.730;9.114;2023-06-22T14:46:11;11.48;;;7.78;;
9124;SDS011;4597;48.730;9.114;2023-06-22T14:48:37;10.00;;;7.32;;
9124;SDS011;4597;48.730;9.114;2023-06-22T14:51:03;13.00;;;7.32;;
9124;SDS011;4597;48.730;9.114;2023-06-22T14:53:28;10.68;;;7.50;;
9124;SDS011;4597;48.730;9.114;2023-06-22T14:55:54;11.07;;;6.07;;
9124;SDS011;4597;48.730;9.114;2023-06-22T14:58:19;10.30;;;5.45;;
9124;SDS011;4597;48.730;9.114;2023-06-22T15:00:45;8.13;;;5.50;;
9124;SDS011;4597;48.730;9.114;2023-06-22T15:03:11;9.50;;;5.82;;
9124;SDS011;4597;48.730;9.114;2023-06-22T15:05:42;9.30;;;6.00;;
9124;SDS011;4597;48.730;9.114;2023-06-22T15:08:08;9.25;;;7.53;;
9124;SDS011;4597;48.730;9.114;2023-06-22T15:10:34;11.38;;;7.40;;